14h38 EDT


 

Suivi/Infos de l'aéroport


-ou-


 

Suivi des vols en temps réel9Y-SXM ✈ 30-04-2013 ✈ CYYZ - SYCJ / GEO

Thumbnail
9Y-SXM / BWA607
Unknown Owner · Trinidad & Tobago
Int'l Pearson de Toronto ( – info)
Terminal 3
Cheddi Jagan Int'l ( – info)
Georgetown GY
Prévu: 23h00 EDT
Prévu: 04h42 GYT  (+1)
Durée: 6 heures 30 minutes
mardi, 30 avril 2013
Statut résultat inconnu (?) (journal de vol & graphique)
Avion Boeing 737-800 (biréacteur) (B738/Q – photos)
Vitesse Plan de vol: 447 kts (graphique)
Altitude Plan de vol: 35.000 Pieds (graphique)
Distance En ligne droite 4.635 km    Prévue 4.790 km
Route OAKVL V265 THORL JHW PSB J61 EDDYS ECG AR8 OXANA L452 OMALA L452 SLUKA L452 JORGG G431 DDP G449 ANADA UG449 POS UA324 TIM
Une partie au moins de ce vol se déroule hors de la zone de services primaire de FlightAware. Pour en savoir plus sur la couverture et la zone de services de FlightAware.
JOURNAL DE L'ACTIVITE
Vous voulez une recherche complète sur l'historique de 9Y-SXM depuis 1998? Achetez maintenant. Recevez-le dans l'heure.
Date Avion Provenance Destination Départ Arrivée Durée
25-07-2014 B738/LPiarco Int'l ()Int'l de Fort Lauderdale-Hollywood () 13h08 AST 16h11 EDT En vol
25-07-2014 B738Cheddi Jagan Int'l ()Piarco Int'l () 10h18 GYT 10h52 AST 0:33
25-07-2014 B738Piarco Int'l ()Cheddi Jagan Int'l () 07h37 AST 08h35 GYT 0:57
25-07-2014 B738/LInt'l John-F.-Kennedy ()Piarco Int'l () 01h15 EDT 05h46 AST 4:30
24-07-2014 B738/LPiarco Int'l ()Int'l John-F.-Kennedy () 18h14 AST 22h22 EDT 4:07
24-07-2014 B738Cheddi Jagan Int'l ()Piarco Int'l () 14h48 GYT 15h40 AST 0:52
24-07-2014 B738Piarco Int'l ()Cheddi Jagan Int'l () 06h42 AST 07h36 GYT 0:53
23-07-2014 B738/LInt'l Pearson de Toronto ()Piarco Int'l () 23h36 EDT 04h31 AST (+1) 4:54
23-07-2014 B738Piarco Int'l ()Int'l Pearson de Toronto () 14h57 AST 20h35 EDT 5:37
23-07-2014 B738/LInt'l John-F.-Kennedy ()Piarco Int'l () 08h03 EDT 12h24 AST 4:21
23-07-2014 B738/LPiarco Int'l ()Int'l John-F.-Kennedy () 00h41 AST 05h38 EDT 4:57
22-07-2014 B738/LInt'l John-F.-Kennedy ()Piarco Int'l () 18h06 EDT 22h20 AST 4:14
22-07-2014 B738/LPiarco Int'l ()Int'l John-F.-Kennedy () 09h24 AST 13h58 EDT 4:33
22-07-2014 B738Cheddi Jagan Int'l ()Piarco Int'l () 06h11 GYT 07h03 AST 0:52
22-07-2014 B738Piarco Int'l ()Cheddi Jagan Int'l () 00h37 AST 01h19 GYT (+1) (?) Inconnu
21-07-2014 B738/LInt'l de Fort Lauderdale-Hollywood ()Piarco Int'l () 18h15 EDT 21h43 AST 3:28
21-07-2014 B738/LPiarco Int'l ()Int'l de Fort Lauderdale-Hollywood () 13h01 AST 16h20 EDT 3:18
21-07-2014 B738Cheddi Jagan Int'l ()Piarco Int'l () 10h16 GYT 11h08 AST 0:52
21-07-2014 B738Piarco Int'l ()Cheddi Jagan Int'l () 07h33 AST 08h26 GYT 0:52
21-07-2014 B738/LInt'l John-F.-Kennedy ()Piarco Int'l () 01h11 EDT 05h41 AST 4:30
20-07-2014 B738/LPiarco Int'l ()Int'l John-F.-Kennedy () 18h00 AST 22h36 EDT 4:35
20-07-2014 B738Cheddi Jagan Int'l ()Piarco Int'l () 14h58 GYT 15h49 AST 0:51
19-07-2014 B738/LInt'l Pearson de Toronto ()Piarco Int'l () 23h35 EDT 04h56 AST (+1) 5:20
19-07-2014 B738/LPiarco Int'l ()Int'l Pearson de Toronto () 15h15 AST 20h06 EDT 4:50
19-07-2014 B738/LInt'l John-F.-Kennedy ()Piarco Int'l () 07h56 EDT 12h32 AST 4:36
19-07-2014 B738/LPiarco Int'l ()Int'l John-F.-Kennedy () 01h00 AST 05h31 EDT 4:31
18-07-2014 B738/LInt'l d'Orlando ()Piarco Int'l () 16h56 EDT 20h40 AST 3:43
18-07-2014 B738/LPiarco Int'l ()Int'l d'Orlando () 11h26 AST 14h46 EDT 3:20
18-07-2014 B738Cheddi Jagan Int'l ()Piarco Int'l () 07h10 GYT 08h05 AST 0:55
17-07-2014 B738Piarco Int'l ()Cheddi Jagan Int'l () 21h13 AST 21h59 GYT (+1) (?) 23:54
16-07-2014 B738/LInt'l John-F.-Kennedy ()Point Salines Int'l () 15h27 EDT 19h49 AST 4:22
16-07-2014 B738/LPoint Salines Int'l ()Int'l John-F.-Kennedy () 08h20 AST 12h18 EDT 3:57
16-07-2014 B738Piarco Int'l ()Point Salines Int'l () 06h12 AST 06h35 AST 0:22
15-07-2014 B738/LInt'l de Fort Lauderdale-Hollywood ()Piarco Int'l () 18h05 EDT 21h31 AST 3:26
15-07-2014 B738/LPiarco Int'l ()Int'l de Fort Lauderdale-Hollywood () 12h35 AST 15h55 EDT 3:19
15-07-2014 B738Cheddi Jagan Int'l ()Piarco Int'l () 09h32 GYT 10h28 AST 0:56
15-07-2014 B738Piarco Int'l ()Cheddi Jagan Int'l () 06h43 AST 07h35 GYT 0:51
14-07-2014 B738/QInt'l Pearson de Toronto ()Piarco Int'l () 23h28 EDT 04h42 AST (+1) 5:14
14-07-2014 B738/LPiarco Int'l ()Int'l Pearson de Toronto () 14h58 AST 20h04 EDT 5:05
14-07-2014 B738/LInt'l John-F.-Kennedy ()Piarco Int'l () 08h01 EDT 12h30 AST 4:29
14-07-2014 B738/LPiarco Int'l ()Int'l John-F.-Kennedy () 01h08 AST 05h30 EDT 4:21
Les membres inscrits (l'inscription est gratuite et facile!) voient 4 months d'historique. S'inscrire